CheckWX is a tool to help pilots better visualize weather data.  It is not intended as a substitute for an official pre-flight weather briefing.

20:32:26 UTC

KPNA METAR
Ralph Wenz Field Airport
Pinedale, Wyoming, USA
Current

17 mins ago

KPNA 182015Z AUTO 00000KT 10SM CLR M13/M18 A2992 RMK AO2
Observed
Feb-18 @ 20:15 UTC
Visibility
10 SM
Flight Rules
VFR
Cloud Levels
  • Clear skies
Temperature
-13°C / 9°F
Dewpoint
-18°C / -0°F
Humidity
66%
Altimeter
29.92" Hg
Pressure
1013.22 hPa
Previous

57 mins ago

KPNA 181935Z AUTO 12003KT 10SM CLR M16/M20 A2993 RMK AO2
Observed
Feb-18 @ 19:35 UTC
Wind
  • 120° at 3 KTS
Visibility
10 SM
Flight Rules
VFR
Cloud Levels
  • Clear skies
Temperature
-16°C / 3°F
Dewpoint
-20°C / -4°F
Humidity
72%
Altimeter
29.93" Hg
Pressure
1013.52 hPa
Previous

1 hour ago

KPNA 181915Z AUTO 12004KT 10SM CLR M16/M19 A2994 RMK AO2
Observed
Feb-18 @ 19:15 UTC
Wind
  • 120° at 4 KTS
Visibility
10 SM
Flight Rules
VFR
Cloud Levels
  • Clear skies
Temperature
-16°C / 3°F
Dewpoint
-19°C / -2°F
Humidity
78%
Altimeter
29.94" Hg
Pressure
1013.92 hPa